Time;durP1;ratioP1;P1;durP2;ratioP2;P2;SDS_P1;SDS_P2;PMS_P1;PMS_P2;Temp;Humidity;BMP_temperature;BMP_pressure;BME280_temperature;BME280_humidity;BME280_pressure;Samples;Min_cycle;Max_cycle;Signal;HPM_P1;HPM_P2
2021/11/30 00:01:11;;;;;;;17.52;12.70;;;;;;;3.58;61.78;92823.95;1694434;83;21481;-57
2021/11/30 00:03:39;;;;;;;15.85;10.05;;;;;;;3.59;61.95;92822.14;1692718;83;21074;-56
2021/11/30 00:06:06;;;;;;;16.85;11.40;;;;;;;3.62;62.07;92827.27;1695759;83;21147;-56
2021/11/30 00:08:34;;;;;;;11.97;9.28;;;;;;;3.63;62.19;92840.42;1677770;84;21060;-58
2021/11/30 00:11:02;;;;;;;9.43;8.38;;;;;;;3.61;62.39;92839.34;1678712;84;20976;-61
2021/11/30 00:13:31;;;;;;;10.03;7.40;;;;;;;3.55;62.55;92831.02;1679316;84;21089;-56
2021/11/30 00:15:58;;;;;;;12.68;7.97;;;;;;;3.50;62.80;92839.77;1679586;84;21025;-56
2021/11/30 00:18:26;;;;;;;10.50;8.50;;;;;;;3.43;62.95;92846.09;1679648;84;21599;-56
2021/11/30 00:20:53;;;;;;;15.65;11.33;;;;;;;3.38;63.02;92852.73;1679752;84;20997;-56
2021/11/30 00:23:21;;;;;;;17.12;10.15;;;;;;;3.36;63.42;92855.11;1680381;84;21008;-55
2021/11/30 00:25:49;;;;;;;11.12;7.92;;;;;;;3.38;63.65;92842.60;1681327;84;20982;-56
2021/11/30 00:28:16;;;;;;;9.00;7.60;;;;;;;3.38;63.86;92850.75;1683197;84;20969;-55
2021/11/30 00:30:43;;;;;;;12.55;8.35;;;;;;;3.33;63.96;92849.22;1680759;84;21899;-53
2021/11/30 00:33:10;;;;;;;11.88;9.03;;;;;;;3.27;64.08;92851.75;1680913;84;20989;-55
2021/11/30 00:35:38;;;;;;;9.60;6.92;;;;;;;3.24;64.21;92858.70;1683241;83;22062;-56
2021/11/30 00:38:08;;;;;;;13.50;7.30;;;;;;;3.19;64.31;92859.27;1715199;82;21567;-56
2021/11/30 00:40:39;;;;;;;9.55;6.65;;;;;;;3.17;64.42;92858.95;1715309;82;21136;-56
2021/11/30 00:43:04;;;;;;;7.42;6.55;;;;;;;3.18;64.39;92863.18;1713071;82;21169;-55
2021/11/30 00:45:39;;;;;;;8.95;6.62;;;;;;;3.18;64.14;92861.82;1710315;83;21430;-56
2021/11/30 00:48:10;;;;;;;10.23;7.73;;;;;;;3.20;64.09;92871.67;1706508;82;21050;-56
2021/11/30 00:50:42;;;;;;;8.93;8.00;;;;;;;3.20;64.17;92862.91;1709925;82;21561;-56
2021/11/30 00:53:10;;;;;;;11.28;8.10;;;;;;;3.20;64.19;92862.91;1716531;82;21019;-56
2021/11/30 00:55:38;;;;;;;11.63;8.85;;;;;;;3.15;64.19;92866.20;1709609;82;21160;-54
2021/11/30 00:58:05;;;;;;;10.18;8.05;;;;;;;3.12;64.27;92865.75;1717409;82;21513;-56
2021/11/30 01:00:35;;;;;;;14.38;8.55;;;;;;;3.12;64.26;92856.83;1714389;82;20999;-55
2021/11/30 01:03:05;;;;;;;16.27;9.90;;;;;;;3.13;64.29;92867.26;1710609;82;21501;-54
2021/11/30 01:05:34;;;;;;;21.37;10.60;;;;;;;3.15;64.21;92865.44;1712475;82;21046;-54
2021/11/30 01:08:01;;;;;;;17.77;9.65;;;;;;;3.19;63.98;92861.39;1710668;83;21893;-55
2021/11/30 01:10:31;;;;;;;19.57;11.83;;;;;;;3.25;63.89;92864.29;1710767;82;21121;-54
2021/11/30 01:12:58;;;;;;;14.10;9.10;;;;;;;3.29;63.52;92866.27;1710993;83;21055;-55
2021/11/30 01:15:25;;;;;;;11.12;8.15;;;;;;;3.31;63.28;92866.57;1713331;83;21565;-56
2021/11/30 01:17:54;;;;;;;8.58;6.17;;;;;;;3.29;63.30;92866.27;1713094;82;21078;-56
2021/11/30 01:20:22;;;;;;;6.12;5.53;;;;;;;3.29;63.39;92868.98;1701114;83;21162;-55
2021/11/30 01:22:49;;;;;;;6.37;5.78;;;;;;;3.21;63.38;92873.19;1711042;82;21475;-55
2021/11/30 01:25:16;;;;;;;7.62;6.45;;;;;;;3.15;63.37;92864.08;1708087;83;21145;-55
2021/11/30 01:27:46;;;;;;;19.92;15.63;;;;;;;3.12;63.35;92867.69;1708584;83;21443;-55
2021/11/30 01:30:14;;;;;;;16.90;13.40;;;;;;;3.08;63.60;92863.00;1716808;82;21630;-55
2021/11/30 01:32:42;;;;;;;10.25;9.15;;;;;;;3.07;63.74;92868.27;1715822;82;21984;-56
2021/11/30 01:35:10;;;;;;;17.07;10.18;;;;;;;3.05;63.71;92870.68;1711853;82;20959;-55
2021/11/30 01:37:38;;;;;;;21.02;11.83;;;;;;;3.01;63.89;92878.95;1715003;82;21031;-57
2021/11/30 01:40:07;;;;;;;17.95;11.00;;;;;;;3.00;64.03;92888.89;1715674;82;21495;-55
2021/11/30 01:42:40;;;;;;;17.45;11.10;;;;;;;3.02;64.00;92882.44;1710307;82;21002;-54
2021/11/30 01:45:08;;;;;;;16.90;10.63;;;;;;;3.04;64.07;92890.89;1710324;82;21174;-56
2021/11/30 01:47:52;;;;;;;16.90;10.10;;;;;;;3.05;64.11;92895.87;1713406;83;21105;-55
2021/11/30 01:50:08;;;;;;;13.03;8.98;;;;;;;3.01;64.18;92885.73;1705672;83;20966;-55
2021/11/30 01:52:35;;;;;;;12.25;9.35;;;;;;;2.98;64.39;92887.22;1710838;82;21041;-56
2021/11/30 01:55:04;;;;;;;27.27;13.72;;;;;;;2.95;64.46;92894.90;1713710;82;21534;-56
2021/11/30 01:57:32;;;;;;;43.87;18.90;;;;;;;2.93;64.40;92898.08;1686635;82;21167;-56
2021/11/30 02:00:00;;;;;;;27.20;12.45;;;;;;;2.97;64.43;92899.28;1715865;82;21006;-56
2021/11/30 02:02:27;;;;;;;34.73;16.23;;;;;;;3.03;64.21;92898.89;1713439;83;21097;-58
2021/11/30 02:04:54;;;;;;;20.43;12.35;;;;;;;3.07;63.91;92900.86;1716107;82;21078;-57
2021/11/30 02:07:23;;;;;;;19.57;11.12;;;;;;;3.08;63.88;92898.30;1690642;83;20981;-57
2021/11/30 02:09:52;;;;;;;14.45;9.60;;;;;;;3.05;63.81;92905.98;1677646;84;21179;-55
2021/11/30 02:12:20;;;;;;;16.00;10.75;;;;;;;3.03;63.91;92919.25;1680516;84;21021;-55
2021/11/30 02:14:47;;;;;;;19.77;11.90;;;;;;;3.03;63.90;92926.78;1674912;84;21003;-56
2021/11/30 02:17:15;;;;;;;13.68;10.32;;;;;;;3.01;64.14;92924.34;1669620;84;21468;-55
2021/11/30 02:19:53;;;;;;;17.07;13.65;;;;;;;3.02;64.14;92928.60;1668282;84;21004;-56
2021/11/30 02:22:19;;;;;;;16.40;11.30;;;;;;;2.99;64.10;92930.23;1664896;84;21227;-57
2021/11/30 02:24:46;;;;;;;17.00;11.78;;;;;;;2.99;64.17;92937.03;1671644;84;21064;-56
2021/11/30 02:27:14;;;;;;;20.10;14.10;;;;;;;2.93;64.13;92943.47;1678774;84;21037;-56
2021/11/30 02:29:41;;;;;;;28.10;18.25;;;;;;;2.92;64.42;92944.08;1678517;84;21001;-55
2021/11/30 02:32:08;;;;;;;23.20;15.58;;;;;;;2.98;64.52;92949.67;1683079;84;21076;-56
2021/11/30 02:34:37;;;;;;;18.17;12.93;;;;;;;3.02;64.47;92957.86;1679818;83;21247;-60
2021/11/30 02:37:06;;;;;;;18.15;12.07;;;;;;;2.96;64.62;92956.92;1664520;83;21549;-55
2021/11/30 02:39:34;;;;;;;13.65;11.45;;;;;;;2.92;64.84;92962.31;1705164;84;20991;-57
2021/11/30 02:42:03;;;;;;;14.63;11.03;;;;;;;2.92;65.01;92960.95;1710105;83;21050;-55
2021/11/30 02:44:31;;;;;;;11.48;9.43;;;;;;;2.94;65.09;92970.77;1711634;83;21415;-56
2021/11/30 02:47:09;;;;;;;13.13;8.93;;;;;;;2.96;64.99;92973.80;1691204;83;21815;-56
2021/11/30 02:49:38;;;;;;;16.73;11.05;;;;;;;2.95;64.85;92977.13;1711263;83;21037;-55
2021/11/30 02:52:10;;;;;;;34.13;22.00;;;;;;;3.00;64.75;92988.01;1691431;83;20990;-56
2021/11/30 02:54:41;;;;;;;41.77;22.15;;;;;;;3.02;64.75;92988.34;1688699;83;21074;-56
2021/11/30 02:57:12;;;;;;;37.88;20.97;;;;;;;3.06;64.83;92988.36;1711568;83;20959;-55
2021/11/30 02:59:45;;;;;;;33.53;20.68;;;;;;;3.13;64.67;92988.13;1711635;83;21113;-57
2021/11/30 03:02:21;;;;;;;57.85;34.55;;;;;;;3.09;64.50;92993.52;1708476;83;21570;-56
2021/11/30 03:04:51;;;;;;;62.45;35.58;;;;;;;3.04;64.89;92992.12;1711792;83;21002;-56
2021/11/30 03:07:23;;;;;;;51.50;27.60;;;;;;;3.09;65.02;93000.31;1703493;83;21080;-56
2021/11/30 03:09:50;;;;;;;52.95;26.65;;;;;;;3.07;64.95;93005.43;1673858;85;21032;-56
2021/11/30 03:12:17;;;;;;;57.58;26.70;;;;;;;3.10;64.94;93009.98;1672124;84;21139;-55
2021/11/30 03:14:45;;;;;;;45.92;23.77;;;;;;;3.13;64.95;93015.30;1679127;84;21095;-56
2021/11/30 03:17:13;;;;;;;48.45;24.02;;;;;;;3.13;64.78;93018.01;1683713;84;20954;-55
2021/11/30 03:19:42;;;;;;;38.65;21.15;;;;;;;3.10;65.00;93008.62;1681431;84;20993;-58
2021/11/30 03:22:10;;;;;;;32.28;17.60;;;;;;;3.11;65.05;93015.56;1680872;84;20969;-57
2021/11/30 03:24:38;;;;;;;24.07;15.08;;;;;;;3.15;65.13;93017.55;1681053;84;21142;-56
2021/11/30 03:27:05;;;;;;;28.05;17.50;;;;;;;3.15;64.97;93016.19;1685266;84;21068;-56
2021/11/30 03:29:34;;;;;;;32.40;18.12;;;;;;;3.15;64.33;93009.40;1680579;84;20972;-55
2021/11/30 03:32:08;;;;;;;33.28;20.85;;;;;;;3.20;64.35;93012.93;1681512;84;21456;-56
2021/11/30 03:34:35;;;;;;;;;;;;;;;3.22;63.13;93013.24;1682697;84;21100;-56
2021/11/30 03:37:04;;;;;;;45.17;25.10;;;;;;;3.22;61.72;93015.95;1679046;84;21102;-56
2021/11/30 03:39:32;;;;;;;24.60;16.37;;;;;;;3.17;61.36;93013.79;1678076;84;21132;-56
2021/11/30 03:41:59;;;;;;;12.82;10.00;;;;;;;3.13;60.62;93013.94;1678796;84;21092;-57
2021/11/30 03:44:28;;;;;;;17.00;13.45;;;;;;;3.10;59.65;93008.62;1677982;84;21048;-56
2021/11/30 03:46:58;;;;;;;28.12;19.05;;;;;;;3.05;59.90;93007.83;1678843;84;21057;-55
2021/11/30 03:49:26;;;;;;;17.37;12.98;;;;;;;3.07;59.74;93015.68;1680596;84;21151;-56
2021/11/30 03:51:54;;;;;;;14.18;10.40;;;;;;;3.14;59.06;93018.75;1680747;84;21585;-56
2021/11/30 03:54:21;;;;;;;20.10;14.28;;;;;;;3.14;58.24;93014.09;1680110;84;21140;-56
2021/11/30 03:56:48;;;;;;;22.75;17.30;;;;;;;3.11;57.92;93014.20;1682946;84;21096;-57
2021/11/30 03:59:16;;;;;;;15.60;11.97;;;;;;;3.12;57.94;93004.86;1679451;84;21028;-55
2021/11/30 04:01:43;;;;;;;13.88;11.08;;;;;;;3.14;57.41;93011.37;1681987;84;21128;-56
2021/11/30 04:04:33;;;;;;;17.80;13.53;;;;;;;3.18;57.28;93013.95;1681719;83;21398;-56
2021/11/30 04:06:42;;;;;;;14.55;10.72;;;;;;;3.21;57.43;93017.16;1677752;84;20965;-56
2021/11/30 04:09:09;;;;;;;10.65;9.00;;;;;;;3.27;57.22;93021.56;1688370;83;21138;-57
2021/11/30 04:11:39;;;;;;;14.05;10.68;;;;;;;3.28;56.87;93017.64;1685659;84;21046;-56
2021/11/30 04:14:05;;;;;;;15.72;10.93;;;;;;;3.26;57.36;93024.12;1690800;83;21217;-58
2021/11/30 04:16:36;;;;;;;13.25;9.75;;;;;;;3.29;57.58;93025.98;1702019;83;21038;-56
2021/11/30 04:19:03;;;;;;;12.63;10.43;;;;;;;3.35;57.52;93024.78;1690739;83;20984;-56
2021/11/30 04:21:31;;;;;;;8.93;7.92;;;;;;;3.42;57.34;93028.63;1700220;83;21070;-57
2021/11/30 04:23:59;;;;;;;11.18;9.23;;;;;;;3.47;56.75;93032.13;1673842;84;21082;-55
2021/11/30 04:26:26;;;;;;;15.58;11.70;;;;;;;3.45;56.48;93031.81;1696532;83;21944;-56
2021/11/30 04:28:54;;;;;;;15.60;13.03;;;;;;;3.45;56.71;93033.17;1692530;83;21451;-55
2021/11/30 04:31:24;;;;;;;11.33;10.03;;;;;;;3.52;56.85;93034.41;1678839;83;21120;-57
2021/11/30 04:33:51;;;;;;;20.43;16.95;;;;;;;3.63;56.56;93034.02;1699150;83;21430;-55
2021/11/30 04:36:18;;;;;;;16.73;12.88;;;;;;;3.70;56.45;93046.76;1692121;83;20979;-55
2021/11/30 04:38:45;;;;;;;11.68;9.80;;;;;;;3.71;56.35;93042.09;1700783;83;22408;-57
2021/11/30 04:41:13;;;;;;;10.60;9.30;;;;;;;3.62;56.14;93041.44;1711343;83;20947;-57
2021/11/30 04:43:40;;;;;;;8.50;7.25;;;;;;;3.49;56.26;93050.26;1711548;83;20987;-56
2021/11/30 04:46:15;;;;;;;10.10;8.35;;;;;;;3.41;56.20;93049.59;1711661;83;20986;-56
2021/11/30 04:48:50;;;;;;;11.95;9.30;;;;;;;3.29;56.39;93052.38;1691422;83;21027;-56
2021/11/30 04:51:13;;;;;;;9.03;8.13;;;;;;;3.17;56.84;93056.67;1710278;83;21105;-57
2021/11/30 04:53:42;;;;;;;23.02;19.80;;;;;;;3.13;57.35;93053.91;1711377;83;20951;-56
2021/11/30 04:56:09;;;;;;;13.18;11.85;;;;;;;3.11;57.03;93056.31;1711531;83;21068;-56
2021/11/30 04:58:36;;;;;;;12.73;7.22;;;;;;;3.14;57.09;93060.86;1711570;83;21526;-56
2021/11/30 05:01:04;;;;;;;9.08;7.75;;;;;;;3.12;56.40;93065.97;1711647;83;21046;-56
2021/11/30 05:03:31;;;;;;;10.95;7.33;;;;;;;3.10;56.03;93069.14;1711715;83;21973;-56
2021/11/30 05:05:59;;;;;;;7.00;6.30;;;;;;;3.08;55.23;93065.34;1711609;83;21007;-56
2021/11/30 05:08:29;;;;;;;7.58;6.17;;;;;;;3.02;55.41;93065.14;1710904;83;21577;-56
2021/11/30 05:10:56;;;;;;;11.90;6.28;;;;;;;3.05;55.16;93062.15;1681445;83;21059;-56
2021/11/30 05:13:25;;;;;;;8.63;6.12;;;;;;;3.04;54.66;93065.45;1705862;83;20995;-55
2021/11/30 05:15:52;;;;;;;9.98;6.67;;;;;;;3.01;54.43;93069.05;1709514;83;21144;-57
2021/11/30 05:18:22;;;;;;;7.55;6.85;;;;;;;3.00;54.43;93074.33;1705926;83;21007;-58
2021/11/30 05:20:50;;;;;;;9.10;7.08;;;;;;;3.01;54.30;93073.71;1711561;83;21075;-58
2021/11/30 05:23:27;;;;;;;9.05;8.15;;;;;;;3.06;53.63;93075.89;1711427;83;21026;-58
2021/11/30 05:25:47;;;;;;;11.25;7.67;;;;;;;3.02;52.77;93079.33;1710491;83;21569;-57
2021/11/30 05:28:15;;;;;;;10.72;8.75;;;;;;;3.01;52.90;93083.22;1711690;83;21519;-59
2021/11/30 05:30:42;;;;;;;19.60;9.63;;;;;;;3.01;53.36;93079.92;1691150;83;20968;-58
2021/11/30 05:33:11;;;;;;;27.20;9.73;;;;;;;2.93;53.94;93081.36;1711689;83;21519;-58
2021/11/30 05:35:38;;;;;;;15.68;10.30;;;;;;;2.94;54.38;93086.18;1691743;83;21054;-58
2021/11/30 05:38:07;;;;;;;14.50;10.60;;;;;;;2.97;54.35;93077.16;1706796;83;21074;-58
2021/11/30 05:40:34;;;;;;;31.65;24.72;;;;;;;2.90;54.69;93086.91;1679030;84;21547;-58
2021/11/30 05:43:01;;;;;;;33.15;21.23;;;;;;;2.89;55.00;93079.95;1697699;83;21110;-59
2021/11/30 05:45:28;;;;;;;29.35;22.30;;;;;;;2.96;55.22;93088.63;1686963;83;21593;-56
2021/11/30 05:47:56;;;;;;;26.75;19.55;;;;;;;2.99;55.04;93089.69;1692723;83;21149;-56
2021/11/30 05:50:26;;;;;;;23.98;17.48;;;;;;;3.07;54.97;93094.45;1686451;83;21605;-56
2021/11/30 05:52:53;;;;;;;19.87;15.58;;;;;;;3.13;55.21;93101.44;1666948;84;21133;-57
2021/11/30 05:55:21;;;;;;;26.97;17.10;;;;;;;3.13;55.38;93097.37;1703038;83;21057;-58
2021/11/30 05:57:48;;;;;;;20.52;14.73;;;;;;;3.15;55.31;93101.76;1696996;83;21050;-57
2021/11/30 06:00:17;;;;;;;18.00;12.73;;;;;;;3.21;55.22;93100.02;1697630;83;22888;-58
2021/11/30 06:02:57;;;;;;;23.75;13.95;;;;;;;3.20;54.82;93104.68;1696681;83;21025;-56
2021/11/30 06:05:24;;;;;;;35.45;14.85;;;;;;;3.16;54.72;93100.56;1685329;84;21125;-57
2021/11/30 06:07:51;;;;;;;18.90;13.80;;;;;;;3.10;55.02;93102.33;1676229;83;20962;-56
2021/11/30 06:10:18;;;;;;;22.05;14.70;;;;;;;3.11;55.47;93114.70;1675801;83;21030;-56
2021/11/30 06:12:45;;;;;;;19.85;13.10;;;;;;;3.04;55.78;93107.55;1701398;83;21509;-57
2021/11/30 06:15:13;;;;;;;18.27;11.93;;;;;;;3.01;55.96;93111.73;1678092;84;21028;-58
2021/11/30 06:17:40;;;;;;;26.05;14.65;;;;;;;3.02;56.11;93114.64;1673835;84;21769;-56
2021/11/30 06:20:12;;;;;;;24.60;14.45;;;;;;;2.97;56.26;93107.80;1677365;84;21088;-57
2021/11/30 06:22:40;;;;;;;31.60;18.02;;;;;;;2.94;55.93;93104.61;1698344;83;21043;-58
2021/11/30 06:25:08;;;;;;;58.23;29.98;;;;;;;2.85;55.94;93103.14;1710896;82;21144;-57
2021/11/30 06:27:35;;;;;;;35.98;19.07;;;;;;;2.84;55.86;93104.95;1703938;82;21105;-57
2021/11/30 06:30:05;;;;;;;50.38;22.02;;;;;;;2.82;55.57;93107.33;1707860;82;21097;-57
2021/11/30 06:32:33;;;;;;;46.90;24.67;;;;;;;2.80;56.20;93107.00;1725851;82;21041;-57
2021/11/30 06:35:02;;;;;;;39.10;25.82;;;;;;;2.72;56.92;93109.80;1722277;81;21066;-57
2021/11/30 06:37:29;;;;;;;49.35;27.50;;;;;;;2.59;56.70;93115.25;1690473;82;21153;-58
2021/11/30 06:39:57;;;;;;;45.43;26.55;;;;;;;2.51;56.34;93119.98;1707135;81;21154;-59
2021/11/30 06:42:25;;;;;;;50.52;26.00;;;;;;;2.45;56.50;93114.91;1714510;82;21135;-57
2021/11/30 06:44:52;;;;;;;39.40;21.10;;;;;;;2.39;56.85;93113.95;1709509;81;21012;-57
2021/11/30 06:47:19;;;;;;;23.32;15.70;;;;;;;2.39;56.68;93112.01;1699562;81;21632;-57
2021/11/30 06:49:47;;;;;;;26.50;15.75;;;;;;;2.42;56.16;93109.00;1705390;82;21128;-58
2021/11/30 06:52:14;;;;;;;33.10;15.83;;;;;;;2.49;55.96;93110.16;1715426;81;21104;-58
2021/11/30 06:54:54;;;;;;;25.23;16.05;;;;;;;2.49;55.70;93111.52;1689023;82;21862;-61
2021/11/30 06:57:14;;;;;;;54.30;21.77;;;;;;;2.52;55.53;93106.57;1683466;82;22483;-58
2021/11/30 06:59:44;;;;;;;70.10;32.33;;;;;;;2.57;56.10;93114.93;1681573;81;21908;-57
2021/11/30 07:02:12;;;;;;;56.40;31.85;;;;;;;2.60;56.45;93105.14;1687134;81;21049;-55
2021/11/30 07:04:45;;;;;;;76.97;41.70;;;;;;;2.61;56.78;93105.30;1688284;81;21609;-59
2021/11/30 07:07:31;;;;;;;111.30;53.10;;;;;;;2.65;56.79;93111.39;1688408;82;21182;-57
2021/11/30 07:15:10;;;;;;;37.80;21.50;;;;;;;2.89;56.41;93118.72;1684382;81;21142;-56
2021/11/30 07:17:39;;;;;;;42.35;18.92;;;;;;;2.87;55.59;93120.37;1685927;81;21022;-57
2021/11/30 07:20:08;;;;;;;45.60;23.07;;;;;;;2.89;55.51;93123.41;1685605;82;21112;-60
2021/11/30 07:22:35;;;;;;;25.88;14.53;;;;;;;2.86;55.64;93122.31;1685941;81;21142;-59
2021/11/30 07:25:03;;;;;;;52.08;25.02;;;;;;;2.76;54.58;93115.87;1691063;81;21002;-55
2021/11/30 07:27:30;;;;;;;36.48;16.75;;;;;;;2.72;55.14;93115.97;1685566;81;21049;-59
2021/11/30 07:29:57;;;;;;;28.45;13.75;;;;;;;2.76;54.65;93120.72;1668455;81;21321;-59
2021/11/30 07:32:24;;;;;;;24.18;13.22;;;;;;;2.72;53.11;93120.66;1686044;81;21074;-56
2021/11/30 07:34:52;;;;;;;9.30;7.47;;;;;;;2.64;52.67;93126.91;1687340;81;20999;-56
2021/11/30 07:37:19;;;;;;;9.13;6.65;;;;;;;2.63;51.84;93123.26;1687318;82;22014;-56
2021/11/30 07:39:48;;;;;;;11.30;7.05;;;;;;;2.65;51.84;93116.21;1686501;81;21154;-59
2021/11/30 07:42:15;;;;;;;37.65;16.77;;;;;;;2.70;51.42;93115.66;1689234;82;21030;-58
2021/11/30 07:44:44;;;;;;;20.88;13.32;;;;;;;2.75;51.37;93118.42;1686736;82;21194;-59
2021/11/30 07:47:11;;;;;;;11.53;9.18;;;;;;;2.82;51.10;93120.90;1688548;81;22320;-59
2021/11/30 07:49:45;;;;;;;8.60;6.80;;;;;;;2.88;50.74;93118.55;1667896;82;20918;-64
2021/11/30 07:52:15;;;;;;;8.25;6.92;;;;;;;3.02;50.46;93121.43;1668542;82;21029;-62
2021/11/30 07:54:43;;;;;;;10.78;8.00;;;;;;;3.07;49.84;93118.14;1689644;81;21080;-57
2021/11/30 07:57:10;;;;;;;29.98;18.32;;;;;;;3.10;50.10;93121.34;1667939;82;21069;-60
2021/11/30 07:59:38;;;;;;;22.30;10.98;;;;;;;3.17;50.19;93122.45;1687250;81;21061;-57
2021/11/30 08:02:06;;;;;;;35.88;18.62;;;;;;;3.27;49.64;93122.70;1687178;81;21049;-55
2021/11/30 08:04:34;;;;;;;18.75;12.68;;;;;;;3.33;50.00;93128.50;1689278;81;21057;-61
2021/11/30 08:07:01;;;;;;;15.18;10.10;;;;;;;3.44;49.86;93131.59;1687135;81;20998;-60
2021/11/30 08:09:33;;;;;;;10.82;9.18;;;;;;;3.51;49.58;93133.47;1678108;81;22536;-59
2021/11/30 08:11:57;;;;;;;11.97;8.10;;;;;;;3.58;49.21;93137.91;1686987;82;21571;-59
2021/11/30 08:14:25;;;;;;;18.27;8.23;;;;;;;3.64;48.96;93132.82;1688711;82;21042;-60
2021/11/30 08:16:59;;;;;;;13.48;9.55;;;;;;;3.68;48.56;93141.61;1682929;82;21061;-58
2021/11/30 08:19:30;;;;;;;23.62;12.00;;;;;;;3.64;48.63;93132.82;1663314;82;21565;-59
2021/11/30 08:21:57;;;;;;;13.20;10.13;;;;;;;3.64;48.90;93136.91;1666760;82;21876;-61
2021/11/30 08:24:26;;;;;;;11.45;7.45;;;;;;;3.73;48.93;93135.59;1689368;82;21541;-58
2021/11/30 08:26:55;;;;;;;12.93;10.43;;;;;;;3.75;48.07;93142.73;1685379;82;21125;-60
2021/11/30 08:29:22;;;;;;;12.90;10.45;;;;;;;3.67;48.32;93142.81;1683346;82;21034;-57
2021/11/30 08:31:51;;;;;;;13.90;10.20;;;;;;;3.67;48.50;93136.63;1685142;82;21060;-60
2021/11/30 08:34:19;;;;;;;30.37;9.58;;;;;;;3.78;48.65;93139.71;1676226;81;21923;-58
2021/11/30 08:36:46;;;;;;;17.17;7.90;;;;;;;3.79;48.55;93132.48;1681656;81;21104;-59
2021/11/30 08:39:14;;;;;;;10.28;7.40;;;;;;;3.77;49.15;93129.45;1693299;81;21030;-58
2021/11/30 08:41:41;;;;;;;13.08;7.50;;;;;;;3.79;49.21;93134.43;1690317;81;21027;-57
2021/11/30 08:44:08;;;;;;;9.20;8.25;;;;;;;3.75;49.05;93119.63;1684262;82;21931;-61
2021/11/30 08:46:35;;;;;;;12.35;10.95;;;;;;;3.70;48.66;93129.69;1662136;82;21109;-59
2021/11/30 08:49:04;;;;;;;11.60;7.55;;;;;;;3.67;47.90;93119.70;1687038;82;21805;-60
2021/11/30 08:51:36;;;;;;;8.95;6.40;;;;;;;3.68;47.92;93125.91;1670793;82;21018;-56
2021/11/30 08:54:07;;;;;;;11.73;6.70;;;;;;;3.72;46.76;93114.30;1611656;82;21100;-59
2021/11/30 08:56:36;;;;;;;31.07;20.05;;;;;;;3.70;47.08;93124.25;1681048;82;21025;-56
2021/11/30 08:59:04;;;;;;;9.60;7.30;;;;;;;3.62;47.20;93121.63;1686574;81;21433;-61
2021/11/30 09:01:36;;;;;;;13.20;8.95;;;;;;;3.58;47.38;93120.23;1689119;81;21562;-61
2021/11/30 09:04:08;;;;;;;18.17;9.93;;;;;;;3.58;47.64;93114.80;1686922;81;21178;-59
2021/11/30 09:06:35;;;;;;;16.70;10.08;;;;;;;3.61;47.81;93118.76;1679160;82;21047;-59
2021/11/30 09:09:07;;;;;;;9.78;7.05;;;;;;;3.66;47.61;93118.19;1671612;82;22191;-60
2021/11/30 09:11:35;;;;;;;15.98;14.53;;;;;;;3.74;47.81;93113.25;1686556;82;21114;-60
2021/11/30 09:14:03;;;;;;;7.33;6.47;;;;;;;3.80;47.74;93112.83;1680687;81;21037;-60
2021/11/30 09:16:33;;;;;;;11.30;7.40;;;;;;;3.82;47.99;93109.84;1684311;81;21551;-64
2021/11/30 09:19:03;;;;;;;9.75;6.80;;;;;;;3.84;48.07;93106.07;1685179;82;21170;-58
2021/11/30 09:21:32;;;;;;;14.05;7.30;;;;;;;3.81;47.90;93109.68;1680227;81;21022;-53
2021/11/30 09:24:00;;;;;;;9.20;7.30;;;;;;;3.77;48.53;93106.92;1686558;82;22374;-55
2021/11/30 09:26:27;;;;;;;8.75;6.92;;;;;;;3.77;48.62;93105.56;1684096;82;21477;-59
2021/11/30 09:28:54;;;;;;;9.65;6.90;;;;;;;3.75;48.57;93104.67;1678861;82;21015;-56
2021/11/30 09:31:21;;;;;;;10.28;6.72;;;;;;;3.76;48.58;93096.66;1689425;82;20910;-57
2021/11/30 09:33:49;;;;;;;11.15;7.55;;;;;;;3.75;48.27;93096.51;1683908;82;21041;-59
2021/11/30 09:36:19;;;;;;;9.90;6.08;;;;;;;3.70;48.68;93099.78;1667257;82;21136;-60
2021/11/30 09:38:46;;;;;;;12.10;7.37;;;;;;;3.68;48.47;93092.67;1674687;82;21057;-57
2021/11/30 09:41:13;;;;;;;7.60;6.70;;;;;;;3.70;49.23;93087.55;1683369;81;21069;-55
2021/11/30 09:43:40;;;;;;;9.35;6.20;;;;;;;3.89;48.93;93089.17;1687147;82;21037;-58
2021/11/30 09:46:08;;;;;;;18.98;6.28;;;;;;;4.23;48.70;93076.80;1693292;82;21775;-54
2021/11/30 09:48:36;;;;;;;6.15;5.30;;;;;;;4.57;47.62;93093.59;1662613;82;22454;-57
2021/11/30 09:51:05;;;;;;;11.53;7.28;;;;;;;4.58;47.12;93082.23;1685300;82;21019;-60
2021/11/30 09:53:36;;;;;;;9.45;6.87;;;;;;;4.52;46.94;93081.31;1668229;82;21650;-58
2021/11/30 09:56:05;;;;;;;7.50;6.35;;;;;;;4.54;46.60;93090.38;1670036;82;21035;-58
2021/11/30 09:58:32;;;;;;;8.55;5.78;;;;;;;4.56;46.41;93096.91;1689178;82;21045;-58
2021/11/30 10:01:01;;;;;;;10.68;6.15;;;;;;;4.58;46.78;93093.13;1686314;81;22313;-57
2021/11/30 10:03:31;;;;;;;8.83;5.87;;;;;;;4.53;46.54;93093.72;1668675;81;21049;-58
2021/11/30 10:06:00;;;;;;;15.85;10.88;;;;;;;4.47;46.70;93087.95;1683220;82;21718;-58
2021/11/30 10:08:34;;;;;;;13.88;10.98;;;;;;;4.33;47.23;93096.06;1665693;82;21061;-58
2021/11/30 10:11:03;;;;;;;14.35;10.18;;;;;;;4.28;47.58;93097.98;1684437;81;21069;-60
2021/11/30 10:13:31;;;;;;;13.13;9.35;;;;;;;4.27;47.65;93097.83;1683942;81;21127;-56
2021/11/30 10:16:04;;;;;;;9.18;7.20;;;;;;;4.24;47.52;93094.65;1689823;82;21003;-56
2021/11/30 10:18:38;;;;;;;8.63;7.42;;;;;;;4.16;47.66;93089.33;1671184;81;21437;-56
2021/11/30 10:21:24;;;;;;;15.48;8.25;;;;;;;4.05;48.05;93086.23;1659834;81;21041;-58
2021/11/30 10:24:09;;;;;;;9.68;7.37;;;;;;;3.92;48.74;93085.59;1687886;81;21044;-56
2021/11/30 10:26:42;;;;;;;13.00;7.42;;;;;;;3.80;48.60;93089.13;1685373;81;21762;-56
2021/11/30 10:29:11;;;;;;;8.58;6.92;;;;;;;3.63;49.35;93089.75;1663984;82;22465;-58
2021/11/30 10:31:43;;;;;;;8.30;7.15;;;;;;;3.54;49.88;93096.50;1652654;82;21104;-55
2021/11/30 10:34:25;;;;;;;11.50;9.70;;;;;;;3.45;50.31;93097.03;1679609;82;21616;-56
2021/11/30 10:36:58;;;;;;;11.57;7.50;;;;;;;3.40;50.70;93090.81;1682689;82;21229;-56
2021/11/30 10:39:27;;;;;;;;;;;;;;;3.61;50.38;93099.73;1686453;81;21742;-55
2021/11/30 10:42:15;;;;;;;12.35;8.68;;;;;;;3.89;50.05;93091.14;1685171;82;20194;-55
2021/11/30 10:44:43;;;;;;;11.05;9.60;;;;;;;4.01;49.02;93095.14;1674946;81;21476;-59
2021/11/30 10:47:13;;;;;;;13.13;6.60;;;;;;;4.26;48.35;93101.77;1686013;81;21080;-57
2021/11/30 10:49:55;;;;;;;8.15;6.83;;;;;;;4.53;47.37;93091.00;1686071;82;21142;-57
2021/11/30 10:52:25;;;;;;;8.70;7.17;;;;;;;4.56;47.21;93092.05;1687551;81;21278;-55
2021/11/30 10:55:05;;;;;;;7.87;5.90;;;;;;;4.50;47.30;93082.96;1684887;81;21061;-55
2021/11/30 10:57:32;;;;;;;18.23;6.83;;;;;;;4.38;47.03;93084.59;1688366;81;21458;-57
2021/11/30 11:00:15;;;;;;;8.28;5.87;;;;;;;4.21;47.52;93086.02;1685025;82;21038;-57
2021/11/30 11:03:01;;;;;;;7.35;6.00;;;;;;;4.10;47.88;93085.69;1685483;81;21473;-58
2021/11/30 11:05:39;;;;;;;8.73;6.22;;;;;;;3.96;48.34;93085.44;1688503;81;21138;-58
2021/11/30 11:08:16;;;;;;;10.10;6.62;;;;;;;3.75;48.62;93078.83;1680059;81;22131;-58
2021/11/30 11:10:46;;;;;;;11.80;9.40;;;;;;;3.68;49.30;93066.84;1685284;81;21073;-55
2021/11/30 11:13:25;;;;;;;10.90;7.87;;;;;;;4.03;49.14;93064.17;1683035;82;21472;-56
2021/11/30 11:15:57;;;;;;;12.20;9.23;;;;;;;4.70;47.25;93066.39;1681725;81;21386;-55
2021/11/30 11:18:32;;;;;;;19.98;8.43;;;;;;;5.22;46.35;93058.59;1628663;84;22454;-55
2021/11/30 11:21:29;;;;;;;15.88;9.20;;;;;;;5.51;45.02;93056.92;1632851;83;22135;-55
2021/11/30 11:24:15;;;;;;;9.43;7.75;;;;;;;5.56;44.91;93048.90;1587081;85;21059;-58
2021/11/30 11:26:52;;;;;;;11.28;8.60;;;;;;;5.68;44.00;93061.62;1689381;81;21015;-55
2021/11/30 11:29:29;;;;;;;17.35;9.35;;;;;;;5.95;43.24;93049.94;1638895;82;22064;-57
2021/11/30 11:32:06;;;;;;;9.93;6.95;;;;;;;6.44;42.65;93047.64;1647206;83;21160;-56
2021/11/30 11:34:36;;;;;;;8.25;6.25;;;;;;;7.02;41.33;93050.67;1611253;85;21063;-55
2021/11/30 11:37:05;;;;;;;12.30;7.72;;;;;;;7.55;40.05;93049.54;1631427;85;21063;-55
2021/11/30 11:39:34;;;;;;;8.73;6.45;;;;;;;7.71;39.87;93044.38;1638592;85;21384;-56
2021/11/30 11:42:04;;;;;;;10.70;6.53;;;;;;;7.94;39.94;93043.56;1630956;85;21126;-57
2021/11/30 11:44:31;;;;;;;28.45;7.08;;;;;;;8.08;39.46;93041.42;1611284;85;22502;-56
2021/11/30 11:47:10;;;;;;;6.40;5.40;;;;;;;7.94;39.29;93044.94;1630847;85;21462;-57